Time;durP1;ratioP1;P1;durP2;ratioP2;P2;SDS_P1;SDS_P2;PMS_P1;PMS_P2;Temp;Humidity;BMP_temperature;BMP_pressure;BME280_temperature;BME280_humidity;BME280_pressure;Samples;Min_cycle;Max_cycle;Signal;HPM_P1;HPM_P2
2022/03/21 00:00:53;;;;;;;73.03;34.42;;;;;;;;;;4995688;28;20070;-85
2022/03/21 00:03:20;;;;;;;78.45;35.03;;;;;;;;;;4984871;28;20714;-85
2022/03/21 00:05:46;;;;;;;66.75;31.13;;;;;;;;;;4988412;28;20894;-85
2022/03/21 00:08:13;;;;;;;64.35;31.88;;;;;;;;;;4994517;28;20096;-85
2022/03/21 00:10:40;;;;;;;67.47;30.73;;;;;;;;;;4980051;28;20034;-85
2022/03/21 00:13:07;;;;;;;64.93;29.77;;;;;;;;;;4979556;28;20465;-85
2022/03/21 00:15:33;;;;;;;56.20;28.25;;;;;;;;;;4995786;28;20089;-85
2022/03/21 00:18:01;;;;;;;61.00;27.83;;;;;;;;;;4998400;28;20133;-85
2022/03/21 00:20:29;;;;;;;59.05;25.88;;;;;;;;;;4979327;28;20516;-85
2022/03/21 00:22:55;;;;;;;51.75;24.15;;;;;;;;;;4978317;28;20050;-85
2022/03/21 00:25:22;;;;;;;54.25;24.05;;;;;;;;;;4975849;28;20137;-85
2022/03/21 00:27:48;;;;;;;55.35;24.02;;;;;;;;;;4978500;28;20025;-85
2022/03/21 00:30:14;;;;;;;46.58;23.15;;;;;;;;;;4992580;28;20620;-85
2022/03/21 00:32:41;;;;;;;45.90;22.75;;;;;;;;;;4996076;28;20038;-85
2022/03/21 00:35:08;;;;;;;42.35;22.38;;;;;;;;;;4979381;28;20026;-85
2022/03/21 00:37:38;;;;;;;57.70;23.77;;;;;;;;;;4978300;28;20032;-85
2022/03/21 00:40:08;;;;;;;56.38;23.90;;;;;;;;;;4997535;28;20036;-85
2022/03/21 00:42:38;;;;;;;47.70;24.02;;;;;;;;;;4984289;28;20042;-86
2022/03/21 00:45:05;;;;;;;45.20;21.42;;;;;;;;;;4985167;28;20034;-85
2022/03/21 00:47:38;;;;;;;50.47;23.50;;;;;;;;;;4993023;28;20497;-86
2022/03/21 00:50:05;;;;;;;48.42;21.35;;;;;;;;;;4998552;28;20034;-86
2022/03/21 00:52:32;;;;;;;43.05;21.75;;;;;;;;;;4987555;28;20022;-85
2022/03/21 00:54:59;;;;;;;45.88;21.33;;;;;;;;;;4979596;28;20269;-85
2022/03/21 00:57:25;;;;;;;42.95;21.42;;;;;;;;;;4984058;28;20030;-85
2022/03/21 00:59:51;;;;;;;50.30;23.50;;;;;;;;;;4997043;28;20037;-85
2022/03/21 01:02:17;;;;;;;42.95;21.90;;;;;;;;;;4986346;28;20657;-85
2022/03/21 01:04:43;;;;;;;45.88;21.92;;;;;;;;;;4999052;28;20053;-85
2022/03/21 01:07:09;;;;;;;48.55;19.60;;;;;;;;;;4979303;28;20035;-85
2022/03/21 01:09:35;;;;;;;43.20;21.15;;;;;;;;;;4976352;28;20034;-85
2022/03/21 01:12:03;;;;;;;43.50;20.52;;;;;;;;;;4964804;28;20026;-85
2022/03/21 01:14:30;;;;;;;42.85;19.63;;;;;;;;;;4976833;28;20023;-85
2022/03/21 01:16:57;;;;;;;45.35;19.20;;;;;;;;;;4966294;28;20085;-85
2022/03/21 01:19:23;;;;;;;46.30;19.92;;;;;;;;;;4966447;28;20668;-85
2022/03/21 01:21:49;;;;;;;42.10;20.20;;;;;;;;;;4967000;28;20550;-85
2022/03/21 01:24:15;;;;;;;39.67;18.73;;;;;;;;;;4964087;28;20042;-84
2022/03/21 01:26:41;;;;;;;39.97;18.13;;;;;;;;;;4977459;28;20033;-85
2022/03/21 01:29:08;;;;;;;38.85;18.00;;;;;;;;;;4984407;28;20042;-85
2022/03/21 01:31:34;;;;;;;50.63;18.48;;;;;;;;;;4980878;28;20141;-85
2022/03/21 01:34:00;;;;;;;37.20;18.95;;;;;;;;;;4964884;28;20048;-85
2022/03/21 01:36:26;;;;;;;46.53;17.65;;;;;;;;;;4982382;28;20446;-85
2022/03/21 01:38:52;;;;;;;38.30;16.67;;;;;;;;;;4968097;28;20030;-85
2022/03/21 01:41:18;;;;;;;38.80;17.20;;;;;;;;;;4965117;28;20046;-85
2022/03/21 01:44:03;;;;;;;38.13;17.42;;;;;;;;;;4979158;28;20026;-85
2022/03/21 01:46:29;;;;;;;39.45;16.73;;;;;;;;;;4964861;28;20082;-85
2022/03/21 01:48:56;;;;;;;36.85;16.50;;;;;;;;;;4967288;28;20023;-85
2022/03/21 01:51:22;;;;;;;36.92;15.30;;;;;;;;;;4979257;28;20022;-85
2022/03/21 01:56:34;;;;;;;48.08;17.88;;;;;;;;;;4986441;28;20094;-84
2022/03/21 01:59:00;;;;;;;41.85;17.27;;;;;;;;;;4983251;28;20041;-85
2022/03/21 02:01:26;;;;;;;40.65;17.00;;;;;;;;;;4966565;28;20438;-85
2022/03/21 02:03:52;;;;;;;43.53;16.77;;;;;;;;;;4966688;28;20106;-85
2022/03/21 02:06:19;;;;;;;39.88;17.73;;;;;;;;;;4972328;28;20049;-85
2022/03/21 02:08:45;;;;;;;37.30;17.48;;;;;;;;;;4965995;28;20113;-86
2022/03/21 02:11:11;;;;;;;38.28;18.13;;;;;;;;;;4979704;28;20033;-85
2022/03/21 02:13:37;;;;;;;40.20;17.48;;;;;;;;;;4981191;28;20504;-85
2022/03/21 02:16:05;;;;;;;38.15;16.08;;;;;;;;;;4968974;28;20050;-85
2022/03/21 02:18:31;;;;;;;50.17;16.83;;;;;;;;;;4964887;28;20371;-85
2022/03/21 02:20:59;;;;;;;49.30;17.25;;;;;;;;;;4969221;28;20608;-85
2022/03/21 02:24:01;;;;;;;35.53;15.27;;;;;;;;;;4968672;28;20085;-85
2022/03/21 02:26:28;;;;;;;36.78;17.90;;;;;;;;;;4884632;29;20063;-85
2022/03/21 02:28:56;;;;;;;40.17;16.92;;;;;;;;;;4946289;28;20394;-85
2022/03/21 02:31:22;;;;;;;38.58;16.92;;;;;;;;;;4965552;28;20683;-85
2022/03/21 02:33:48;;;;;;;37.55;15.90;;;;;;;;;;4982854;28;20405;-85
2022/03/21 02:36:16;;;;;;;38.55;16.55;;;;;;;;;;4969177;28;20482;-85
2022/03/21 02:38:43;;;;;;;42.35;16.00;;;;;;;;;;4970878;28;20144;-85
2022/03/21 02:41:09;;;;;;;40.97;16.08;;;;;;;;;;4964160;28;20027;-85
2022/03/21 02:43:49;;;;;;;34.28;15.60;;;;;;;;;;4979496;28;20022;-85
2022/03/21 02:46:17;;;;;;;37.75;15.73;;;;;;;;;;4969813;28;20038;-85
2022/03/21 02:48:44;;;;;;;41.58;15.65;;;;;;;;;;4963288;28;20482;-85
2022/03/21 02:51:10;;;;;;;38.03;16.33;;;;;;;;;;4965838;28;20035;-85
2022/03/21 02:53:38;;;;;;;35.67;15.38;;;;;;;;;;4987938;28;20117;-85
2022/03/21 02:56:04;;;;;;;38.45;16.95;;;;;;;;;;4981396;28;20553;-85
2022/03/21 02:58:30;;;;;;;39.47;16.42;;;;;;;;;;4966322;28;20117;-85
2022/03/21 03:01:09;;;;;;;39.42;15.95;;;;;;;;;;4982525;28;20143;-85
2022/03/21 03:03:36;;;;;;;33.67;16.05;;;;;;;;;;4966651;28;20104;-86
2022/03/21 03:06:09;;;;;;;35.72;15.82;;;;;;;;;;4992146;28;20077;-85
2022/03/21 03:08:35;;;;;;;43.28;17.13;;;;;;;;;;4985721;28;20477;-86
2022/03/21 03:11:01;;;;;;;43.63;15.98;;;;;;;;;;4999408;28;20044;-85
2022/03/21 03:13:27;;;;;;;42.83;18.02;;;;;;;;;;4985382;28;20544;-85
2022/03/21 03:15:53;;;;;;;53.92;19.10;;;;;;;;;;4999814;28;20034;-85
2022/03/21 03:18:19;;;;;;;44.60;17.35;;;;;;;;;;4984175;28;20022;-85
2022/03/21 03:20:50;;;;;;;44.85;18.70;;;;;;;;;;4988635;28;20037;-85
2022/03/21 03:23:18;;;;;;;42.95;18.63;;;;;;;;;;4982821;28;20033;-85
2022/03/21 03:25:44;;;;;;;43.10;18.20;;;;;;;;;;4985619;28;20083;-85
2022/03/21 03:28:10;;;;;;;43.67;19.70;;;;;;;;;;4984514;28;20033;-85
2022/03/21 03:30:36;;;;;;;46.45;21.35;;;;;;;;;;4984835;28;20056;-84
2022/03/21 03:33:02;;;;;;;49.63;19.23;;;;;;;;;;4994166;28;20172;-85
2022/03/21 03:35:29;;;;;;;52.72;19.67;;;;;;;;;;4985313;28;20156;-86
2022/03/21 03:37:55;;;;;;;41.85;18.23;;;;;;;;;;4998074;28;20052;-85
2022/03/21 03:40:21;;;;;;;55.03;21.55;;;;;;;;;;4984394;28;20224;-85
2022/03/21 03:42:48;;;;;;;48.75;19.88;;;;;;;;;;4995732;28;20050;-85
2022/03/21 03:45:14;;;;;;;48.10;19.30;;;;;;;;;;4984457;28;20105;-85
2022/03/21 03:47:40;;;;;;;40.92;18.25;;;;;;;;;;4981438;28;20038;-85
2022/03/21 03:50:07;;;;;;;49.72;19.05;;;;;;;;;;4998077;28;20081;-85
2022/03/21 03:52:33;;;;;;;48.10;20.52;;;;;;;;;;4995177;28;20061;-85
2022/03/21 03:54:59;;;;;;;47.05;19.65;;;;;;;;;;4982451;28;20034;-85
2022/03/21 03:57:25;;;;;;;42.80;18.42;;;;;;;;;;5002691;28;20030;-86
2022/03/21 03:59:51;;;;;;;47.30;20.67;;;;;;;;;;5000376;28;20056;-86
2022/03/21 04:02:17;;;;;;;43.08;20.55;;;;;;;;;;4989355;28;20705;-85
2022/03/21 04:04:43;;;;;;;42.80;19.73;;;;;;;;;;5001751;28;20326;-85
2022/03/21 04:07:09;;;;;;;44.15;19.75;;;;;;;;;;5002721;28;20651;-85
2022/03/21 04:09:35;;;;;;;44.92;18.88;;;;;;;;;;4981451;28;20038;-85
2022/03/21 04:12:04;;;;;;;48.15;18.92;;;;;;;;;;4996987;28;20034;-85
2022/03/21 04:14:30;;;;;;;50.53;19.27;;;;;;;;;;4986748;28;20030;-85
2022/03/21 04:16:56;;;;;;;46.63;19.60;;;;;;;;;;4986374;28;20808;-85
2022/03/21 04:19:22;;;;;;;43.00;18.75;;;;;;;;;;4984215;28;20445;-85
2022/03/21 04:21:49;;;;;;;49.53;19.90;;;;;;;;;;4993468;28;20038;-86
2022/03/21 04:24:15;;;;;;;46.38;18.70;;;;;;;;;;4983739;28;20029;-84
2022/03/21 04:26:41;;;;;;;49.63;20.38;;;;;;;;;;4986827;28;20940;-85
2022/03/21 04:29:07;;;;;;;43.90;18.83;;;;;;;;;;4981358;28;20693;-85
2022/03/21 04:31:34;;;;;;;50.03;18.70;;;;;;;;;;4998494;28;20508;-85
2022/03/21 04:34:00;;;;;;;60.25;19.73;;;;;;;;;;4985001;28;20029;-85
2022/03/21 04:36:27;;;;;;;50.53;19.35;;;;;;;;;;4985625;28;20034;-85
2022/03/21 04:38:53;;;;;;;46.30;18.58;;;;;;;;;;4984634;28;20105;-85
2022/03/21 04:41:20;;;;;;;56.08;20.13;;;;;;;;;;5001588;28;20034;-85
2022/03/21 04:43:46;;;;;;;40.03;17.23;;;;;;;;;;4978555;28;20048;-85
2022/03/21 04:46:12;;;;;;;43.58;17.70;;;;;;;;;;4986260;28;20032;-85
2022/03/21 04:48:38;;;;;;;50.42;18.52;;;;;;;;;;4985125;28;20036;-85
2022/03/21 04:51:04;;;;;;;45.58;18.10;;;;;;;;;;4986882;28;20422;-84
2022/03/21 04:53:31;;;;;;;56.92;20.20;;;;;;;;;;4997521;28;20040;-85
2022/03/21 04:55:57;;;;;;;42.85;17.23;;;;;;;;;;4988322;28;20022;-85
2022/03/21 04:58:23;;;;;;;41.83;17.17;;;;;;;;;;4982972;28;20701;-85
2022/03/21 05:00:49;;;;;;;42.40;16.77;;;;;;;;;;4987691;28;20094;-85
2022/03/21 05:03:15;;;;;;;40.67;16.70;;;;;;;;;;4986526;28;20028;-85
2022/03/21 05:05:41;;;;;;;43.13;17.75;;;;;;;;;;4988925;28;20046;-85
2022/03/21 05:08:07;;;;;;;44.47;17.05;;;;;;;;;;4985968;28;20052;-84
2022/03/21 05:10:34;;;;;;;45.80;17.27;;;;;;;;;;5000633;28;20030;-85
2022/03/21 05:13:00;;;;;;;45.75;16.35;;;;;;;;;;5001512;28;20022;-85
2022/03/21 05:15:26;;;;;;;45.13;17.05;;;;;;;;;;4984176;28;20022;-85
2022/03/21 05:17:52;;;;;;;43.40;17.13;;;;;;;;;;4985162;28;20045;-84
2022/03/21 05:20:18;;;;;;;45.22;17.42;;;;;;;;;;4984094;28;20064;-85
2022/03/21 05:30:57;;;;;;;53.67;17.25;;;;;;;;;;4988481;28;20088;-85
2022/03/21 05:31:05;;;;;;;40.30;17.35;;;;;;;;;;5002501;28;20154;-85
2022/03/21 05:36:26;;;;;;;47.25;18.73;;;;;;;;;;5001912;28;20085;-85
2022/03/21 05:38:53;;;;;;;41.30;17.63;;;;;;;;;;4996740;28;20048;-85
2022/03/21 05:41:20;;;;;;;43.97;16.15;;;;;;;;;;4998252;28;20041;-84
2022/03/21 05:43:46;;;;;;;48.03;19.23;;;;;;;;;;4984796;28;20052;-85
2022/03/21 05:46:13;;;;;;;47.53;19.10;;;;;;;;;;4986121;28;20081;-85
2022/03/21 05:48:52;;;;;;;56.45;21.42;;;;;;;;;;4986286;28;20034;-85
2022/03/21 05:51:19;;;;;;;49.50;18.98;;;;;;;;;;5002683;28;20101;-85
2022/03/21 05:53:45;;;;;;;48.53;17.25;;;;;;;;;;4998927;28;20057;-84
2022/03/21 05:56:11;;;;;;;42.55;17.75;;;;;;;;;;4996237;28;20086;-85
2022/03/21 05:58:38;;;;;;;47.70;17.65;;;;;;;;;;4978497;28;20041;-87
2022/03/21 06:01:04;;;;;;;45.83;18.70;;;;;;;;;;5000070;28;20033;-85
2022/03/21 06:03:30;;;;;;;43.38;17.63;;;;;;;;;;4982546;28;20042;-85
2022/03/21 06:05:57;;;;;;;49.08;18.98;;;;;;;;;;4988747;28;20085;-85
2022/03/21 06:08:24;;;;;;;51.95;20.40;;;;;;;;;;5002678;28;20053;-84
2022/03/21 06:11:03;;;;;;;44.42;18.05;;;;;;;;;;4996325;28;20276;-84
2022/03/21 06:13:33;;;;;;;46.17;18.20;;;;;;;;;;4997215;28;20050;-85
2022/03/21 06:16:01;;;;;;;46.35;16.92;;;;;;;;;;4999294;28;20030;-84
2022/03/21 06:18:27;;;;;;;42.03;17.33;;;;;;;;;;4996170;28;20089;-85
2022/03/21 06:20:53;;;;;;;51.38;19.08;;;;;;;;;;4979301;28;20553;-85
2022/03/21 06:23:20;;;;;;;48.00;19.33;;;;;;;;;;4980181;28;20191;-84
2022/03/21 06:25:46;;;;;;;51.55;21.23;;;;;;;;;;4982251;28;20502;-85
2022/03/21 06:28:12;;;;;;;43.85;19.42;;;;;;;;;;4979768;28;20625;-84
2022/03/21 06:30:38;;;;;;;46.80;19.13;;;;;;;;;;4987316;28;20445;-84
2022/03/21 06:33:04;;;;;;;49.10;18.27;;;;;;;;;;4997646;28;20042;-84
2022/03/21 06:35:30;;;;;;;42.38;18.20;;;;;;;;;;5001094;28;20029;-84
2022/03/21 06:37:56;;;;;;;41.80;19.17;;;;;;;;;;4975399;28;20459;-84
2022/03/21 06:40:24;;;;;;;50.50;19.25;;;;;;;;;;4981387;28;20478;-84
2022/03/21 06:42:50;;;;;;;36.00;16.60;;;;;;;;;;4983789;28;20061;-84
2022/03/21 06:45:23;;;;;;;37.13;16.13;;;;;;;;;;4983014;28;20034;-85
2022/03/21 06:47:49;;;;;;;34.80;15.93;;;;;;;;;;5002729;28;20041;-84
2022/03/21 06:50:15;;;;;;;43.88;16.95;;;;;;;;;;4983629;28;20042;-84
2022/03/21 06:52:44;;;;;;;37.78;16.02;;;;;;;;;;4996216;28;20058;-84
2022/03/21 06:55:10;;;;;;;36.58;16.15;;;;;;;;;;4985725;28;20037;-84
2022/03/21 06:57:37;;;;;;;37.78;15.77;;;;;;;;;;4999120;28;20030;-84
2022/03/21 07:00:04;;;;;;;34.25;15.13;;;;;;;;;;4973597;28;20489;-84
2022/03/21 07:02:31;;;;;;;34.20;14.88;;;;;;;;;;4980786;28;20517;-84
2022/03/21 07:04:58;;;;;;;35.50;15.10;;;;;;;;;;4985476;28;20489;-84
2022/03/21 07:07:24;;;;;;;28.83;13.63;;;;;;;;;;4982978;28;20121;-84
2022/03/21 07:09:50;;;;;;;34.63;14.55;;;;;;;;;;4981621;28;20089;-84
2022/03/21 07:12:18;;;;;;;35.75;14.68;;;;;;;;;;4982837;28;20084;-84
2022/03/21 07:14:45;;;;;;;33.15;14.82;;;;;;;;;;4980005;28;20643;-84
2022/03/21 07:17:11;;;;;;;30.90;14.90;;;;;;;;;;4987078;28;20030;-85
2022/03/21 07:19:37;;;;;;;34.35;14.55;;;;;;;;;;4981315;28;20030;-84
2022/03/21 07:22:03;;;;;;;33.92;15.15;;;;;;;;;;4997453;28;20078;-84
2022/03/21 07:24:29;;;;;;;32.47;14.32;;;;;;;;;;4998971;28;20073;-84
2022/03/21 07:26:56;;;;;;;27.90;14.35;;;;;;;;;;4983236;28;20070;-84
2022/03/21 07:29:22;;;;;;;26.98;13.10;;;;;;;;;;4982574;28;20452;-84
2022/03/21 07:31:48;;;;;;;25.50;13.25;;;;;;;;;;4978365;28;20030;-84
2022/03/21 07:34:20;;;;;;;30.15;14.05;;;;;;;;;;4997990;28;20026;-85
2022/03/21 07:36:46;;;;;;;32.80;14.45;;;;;;;;;;4997074;28;20408;-84
2022/03/21 07:39:14;;;;;;;35.83;15.18;;;;;;;;;;4996822;28;20037;-84
2022/03/21 07:41:40;;;;;;;30.05;14.13;;;;;;;;;;4976629;28;20081;-84
2022/03/21 07:44:06;;;;;;;32.03;16.30;;;;;;;;;;4983263;28;20036;-84
2022/03/21 07:49:18;;;;;;;33.75;14.48;;;;;;;;;;4998214;28;20405;-84
2022/03/21 07:51:45;;;;;;;33.95;14.38;;;;;;;;;;4993185;28;20117;-84
2022/03/21 07:54:11;;;;;;;27.67;14.30;;;;;;;;;;4977064;28;20133;-85
2022/03/21 07:56:38;;;;;;;39.28;15.70;;;;;;;;;;4982549;28;20041;-84
2022/03/21 07:59:04;;;;;;;28.95;15.00;;;;;;;;;;4980547;28;20746;-84
2022/03/21 08:01:30;;;;;;;31.02;15.57;;;;;;;;;;4993764;28;20168;-84
2022/03/21 08:04:00;;;;;;;26.30;14.38;;;;;;;;;;4995046;28;20958;-84
2022/03/21 08:06:26;;;;;;;31.52;14.55;;;;;;;;;;4984832;28;20046;-84
2022/03/21 08:08:57;;;;;;;28.38;13.95;;;;;;;;;;4984961;28;20520;-84
2022/03/21 08:11:24;;;;;;;31.35;15.85;;;;;;;;;;4980806;28;20041;-84
2022/03/21 08:13:50;;;;;;;31.40;14.25;;;;;;;;;;4978388;28;20467;-84
2022/03/21 08:16:19;;;;;;;28.63;14.25;;;;;;;;;;4996640;28;20052;-84
2022/03/21 08:18:47;;;;;;;28.27;14.20;;;;;;;;;;4981703;28;20126;-84
2022/03/21 08:21:13;;;;;;;28.80;14.35;;;;;;;;;;4992686;28;20120;-84
2022/03/21 08:23:39;;;;;;;34.33;14.82;;;;;;;;;;4973298;28;20657;-84
2022/03/21 08:26:13;;;;;;;26.83;14.40;;;;;;;;;;5003506;28;20117;-84
2022/03/21 08:28:39;;;;;;;28.35;14.82;;;;;;;;;;4986162;28;20030;-84
2022/03/21 08:31:05;;;;;;;28.33;15.52;;;;;;;;;;4983655;28;20044;-84
2022/03/21 08:33:31;;;;;;;33.47;15.18;;;;;;;;;;4980187;28;20571;-84
2022/03/21 08:35:57;;;;;;;30.15;13.93;;;;;;;;;;4985147;28;20041;-84
2022/03/21 08:38:29;;;;;;;32.42;15.85;;;;;;;;;;4981304;28;20335;-84
2022/03/21 08:40:57;;;;;;;36.47;15.63;;;;;;;;;;4983198;28;20153;-84
2022/03/21 08:43:23;;;;;;;34.72;15.75;;;;;;;;;;5002280;28;20034;-84
2022/03/21 08:45:49;;;;;;;33.83;15.77;;;;;;;;;;4982021;28;20042;-84
2022/03/21 08:48:16;;;;;;;33.83;16.05;;;;;;;;;;4999864;28;20026;-84
2022/03/21 08:50:43;;;;;;;30.98;17.25;;;;;;;;;;4995816;28;20065;-84
2022/03/21 08:53:10;;;;;;;28.33;15.25;;;;;;;;;;5001407;28;20809;-85
2022/03/21 08:55:36;;;;;;;41.15;16.75;;;;;;;;;;4985359;28;20026;-84
2022/03/21 08:58:02;;;;;;;31.65;15.18;;;;;;;;;;5000689;28;20030;-84
2022/03/21 09:00:28;;;;;;;33.15;16.60;;;;;;;;;;4994630;28;20516;-84
2022/03/21 09:02:55;;;;;;;31.17;16.52;;;;;;;;;;4986491;28;20037;-84
2022/03/21 09:05:22;;;;;;;28.95;15.77;;;;;;;;;;4996815;28;20121;-84
2022/03/21 09:07:48;;;;;;;29.92;15.45;;;;;;;;;;5002596;28;20516;-85
2022/03/21 09:10:15;;;;;;;37.45;16.58;;;;;;;;;;4996572;28;20033;-84
2022/03/21 09:12:45;;;;;;;36.42;17.20;;;;;;;;;;4999726;28;20033;-84
2022/03/21 09:15:12;;;;;;;31.92;15.90;;;;;;;;;;5003443;28;20034;-84
2022/03/21 09:17:38;;;;;;;32.70;16.80;;;;;;;;;;4980261;28;20045;-84
2022/03/21 09:20:14;;;;;;;33.83;16.10;;;;;;;;;;4984351;28;20173;-84
2022/03/21 09:22:40;;;;;;;34.38;17.08;;;;;;;;;;4981926;28;20050;-85
2022/03/21 09:25:06;;;;;;;37.10;17.13;;;;;;;;;;4997318;28;20498;-84
2022/03/21 09:27:32;;;;;;;33.47;15.63;;;;;;;;;;4981588;28;20132;-86
2022/03/21 09:29:58;;;;;;;44.88;16.95;;;;;;;;;;5000059;28;20041;-85
2022/03/21 09:32:25;;;;;;;34.20;17.17;;;;;;;;;;5001404;28;20454;-85
2022/03/21 09:34:51;;;;;;;33.20;17.83;;;;;;;;;;4982935;28;20533;-84
2022/03/21 09:37:17;;;;;;;35.13;15.55;;;;;;;;;;4980238;28;20030;-84
2022/03/21 09:39:44;;;;;;;29.60;17.35;;;;;;;;;;4997172;28;20521;-84
2022/03/21 09:42:10;;;;;;;36.50;15.90;;;;;;;;;;4985989;28;20034;-84
2022/03/21 09:44:36;;;;;;;31.45;16.55;;;;;;;;;;4984797;28;20037;-84
2022/03/21 09:48:08;;;;;;;37.22;18.00;;;;;;;;;;4997546;28;20045;-84
2022/03/21 09:49:51;;;;;;;33.40;15.45;;;;;;;;;;5003171;28;20050;-84
2022/03/21 09:52:18;;;;;;;36.00;17.65;;;;;;;;;;5000847;28;20057;-85
2022/03/21 09:54:44;;;;;;;29.45;17.05;;;;;;;;;;4981550;28;20084;-85
2022/03/21 09:57:10;;;;;;;29.42;16.98;;;;;;;;;;5000868;28;20025;-84
2022/03/21 09:59:36;;;;;;;37.92;18.40;;;;;;;;;;4984864;28;20030;-84
2022/03/21 10:02:03;;;;;;;32.63;16.98;;;;;;;;;;5000331;28;20191;-85
2022/03/21 10:04:30;;;;;;;31.63;16.90;;;;;;;;;;4977068;28;20490;-84
2022/03/21 10:07:00;;;;;;;28.73;15.38;;;;;;;;;;4984127;28;20152;-85
2022/03/21 10:09:26;;;;;;;30.65;16.33;;;;;;;;;;4998921;28;20094;-85
2022/03/21 10:11:54;;;;;;;27.85;16.60;;;;;;;;;;5003105;28;20034;-85
2022/03/21 10:14:34;;;;;;;31.95;15.63;;;;;;;;;;4984959;28;20049;-85
2022/03/21 10:17:05;;;;;;;33.25;13.98;;;;;;;;;;5001779;28;20542;-85
2022/03/21 10:19:48;;;;;;;32.95;16.70;;;;;;;;;;4985236;28;20050;-85
2022/03/21 10:22:15;;;;;;;25.45;16.23;;;;;;;;;;5001349;28;20083;-85
2022/03/21 10:24:43;;;;;;;25.35;16.30;;;;;;;;;;4978330;28;20042;-85
2022/03/21 10:27:28;;;;;;;30.08;17.17;;;;;;;;;;4987740;28;20881;-85
2022/03/21 10:29:59;;;;;;;25.55;15.68;;;;;;;;;;4996059;28;20046;-85
2022/03/21 10:32:42;;;;;;;27.38;16.77;;;;;;;;;;4996665;28;20038;-85
2022/03/21 10:35:08;;;;;;;30.17;17.20;;;;;;;;;;4988267;28;20034;-85
2022/03/21 10:37:42;;;;;;;28.73;15.82;;;;;;;;;;4995797;28;21315;-85
2022/03/21 10:40:18;;;;;;;28.00;16.45;;;;;;;;;;4981323;28;20053;-85
2022/03/21 10:42:55;;;;;;;25.10;14.93;;;;;;;;;;4985406;28;20825;-86
2022/03/21 10:45:22;;;;;;;28.77;16.17;;;;;;;;;;4988125;28;20034;-85
2022/03/21 10:47:52;;;;;;;31.65;15.65;;;;;;;;;;4997808;28;20041;-85
2022/03/21 10:50:33;;;;;;;27.58;15.23;;;;;;;;;;4981778;28;20069;-85
2022/03/21 10:53:10;;;;;;;31.30;14.77;;;;;;;;;;4995247;28;20156;-85
2022/03/21 10:55:36;;;;;;;26.55;15.20;;;;;;;;;;4986161;28;20121;-85
2022/03/21 10:58:03;;;;;;;25.60;14.98;;;;;;;;;;4980693;28;20038;-85
2022/03/21 11:00:29;;;;;;;24.75;15.00;;;;;;;;;;4997292;28;20030;-84
2022/03/21 11:03:05;;;;;;;28.83;15.68;;;;;;;;;;4997751;28;20555;-85
2022/03/21 11:05:31;;;;;;;;;;;;;;;;;;5001153;28;20503;-85
2022/03/21 11:08:11;;;;;;;27.92;14.60;;;;;;;;;;4981903;28;19920;-85
2022/03/21 11:10:38;;;;;;;30.42;15.68;;;;;;;;;;4998397;28;20030;-85
2022/03/21 11:13:05;;;;;;;27.75;15.77;;;;;;;;;;4995596;28;20040;-85
2022/03/21 11:15:32;;;;;;;23.80;15.02;;;;;;;;;;4996999;28;20253;-84
2022/03/21 11:17:58;;;;;;;26.55;15.75;;;;;;;;;;4982074;28;20442;-84
2022/03/21 11:20:25;;;;;;;27.48;15.57;;;;;;;;;;4992376;28;20036;-84
2022/03/21 11:22:56;;;;;;;29.05;15.93;;;;;;;;;;4986334;28;20128;-84
2022/03/21 11:25:22;;;;;;;25.77;15.32;;;;;;;;;;4979985;28;20349;-85
2022/03/21 11:28:07;;;;;;;26.77;14.70;;;;;;;;;;4998055;28;20509;-86
2022/03/21 11:30:53;;;;;;;25.40;15.18;;;;;;;;;;4998510;28;20413;-85
2022/03/21 11:33:39;;;;;;;26.30;14.65;;;;;;;;;;4983386;28;20117;-85
2022/03/21 11:36:06;;;;;;;25.75;14.10;;;;;;;;;;4982117;28;20150;-85
2022/03/21 11:39:02;;;;;;;22.40;14.75;;;;;;;;;;4986995;28;20042;-85
2022/03/21 11:41:31;;;;;;;29.08;16.35;;;;;;;;;;4974776;28;20382;-85
2022/03/21 11:44:06;;;;;;;28.70;16.50;;;;;;;;;;4990066;28;20493;-85
2022/03/21 11:46:33;;;;;;;30.75;16.98;;;;;;;;;;4980427;28;20040;-85
2022/03/21 11:49:27;;;;;;;28.02;17.00;;;;;;;;;;4979604;28;20511;-85
2022/03/21 11:51:57;;;;;;;30.05;15.52;;;;;;;;;;4988845;28;20052;-85
2022/03/21 11:54:31;;;;;;;31.67;16.70;;;;;;;;;;4981428;28;20133;-85
2022/03/21 11:56:58;;;;;;;25.45;16.65;;;;;;;;;;4984600;28;20029;-85
2022/03/21 11:59:33;;;;;;;28.33;16.20;;;;;;;;;;4994828;28;20758;-85
2022/03/21 12:02:03;;;;;;;24.52;15.95;;;;;;;;;;4978863;28;20038;-85
2022/03/21 12:04:32;;;;;;;26.88;16.17;;;;;;;;;;4975950;28;20382;-85
2022/03/21 12:06:59;;;;;;;27.02;16.58;;;;;;;;;;4998255;28;20057;-85
2022/03/21 12:09:38;;;;;;;24.48;16.33;;;;;;;;;;4992340;28;20493;-84
2022/03/21 12:12:05;;;;;;;27.65;16.20;;;;;;;;;;4980424;28;20030;-84
2022/03/21 12:14:58;;;;;;;25.90;16.33;;;;;;;;;;4996611;28;20034;-85
2022/03/21 12:17:24;;;;;;;26.88;16.15;;;;;;;;;;4973917;28;20045;-85
2022/03/21 12:20:03;;;;;;;32.15;17.20;;;;;;;;;;4980261;28;20120;-85
2022/03/21 12:23:02;;;;;;;27.38;16.50;;;;;;;;;;4994175;28;20096;-84
2022/03/21 12:25:22;;;;;;;27.65;16.83;;;;;;;;;;4991329;28;20030;-85
2022/03/21 12:27:53;;;;;;;30.05;16.73;;;;;;;;;;4996233;28;20064;-85
2022/03/21 12:30:29;;;;;;;22.50;14.65;;;;;;;;;;4981011;28;20050;-85
2022/03/21 12:33:14;;;;;;;28.00;14.80;;;;;;;;;;4972236;28;20050;-85
2022/03/21 12:35:42;;;;;;;23.50;15.60;;;;;;;;;;4979658;28;20092;-85
2022/03/21 12:38:12;;;;;;;25.58;15.45;;;;;;;;;;4974302;28;20042;-84
2022/03/21 12:40:38;;;;;;;21.63;14.65;;;;;;;;;;4990486;28;20026;-85
2022/03/21 12:43:05;;;;;;;24.20;15.38;;;;;;;;;;4977145;28;20058;-85
2022/03/21 12:45:31;;;;;;;25.60;15.95;;;;;;;;;;4993470;28;20172;-84
2022/03/21 12:48:05;;;;;;;24.70;15.00;;;;;;;;;;4978701;28;20038;-84
2022/03/21 12:50:32;;;;;;;23.90;15.57;;;;;;;;;;4980854;28;20035;-85
2022/03/21 12:52:59;;;;;;;28.38;15.80;;;;;;;;;;4981757;28;20704;-84
2022/03/21 12:55:26;;;;;;;23.33;15.73;;;;;;;;;;4996422;28;20393;-84
2022/03/21 12:57:53;;;;;;;26.00;15.80;;;;;;;;;;4996950;28;20489;-84
2022/03/21 13:00:23;;;;;;;25.85;15.82;;;;;;;;;;4982767;28;20029;-84
2022/03/21 13:02:55;;;;;;;24.88;15.80;;;;;;;;;;4985000;28;20054;-84
2022/03/21 13:10:51;;;;;;;29.45;15.18;;;;;;;;;;4979506;28;20049;-85
2022/03/21 13:13:17;;;;;;;24.75;15.07;;;;;;;;;;4974970;28;20425;-85
2022/03/21 13:15:43;;;;;;;29.15;16.08;;;;;;;;;;4966648;28;20034;-85
2022/03/21 13:18:09;;;;;;;25.55;16.10;;;;;;;;;;4984103;28;20085;-85
2022/03/21 13:20:46;;;;;;;24.85;14.88;;;;;;;;;;4961787;28;20340;-84
2022/03/21 13:23:15;;;;;;;25.65;15.05;;;;;;;;;;4978661;28;20039;-85
2022/03/21 13:25:41;;;;;;;24.17;14.60;;;;;;;;;;4961694;28;20366;-83
2022/03/21 13:28:10;;;;;;;30.02;16.13;;;;;;;;;;4963287;28;20668;-83
2022/03/21 13:30:37;;;;;;;25.52;16.00;;;;;;;;;;4975449;28;20045;-83
2022/03/21 13:33:03;;;;;;;27.33;14.18;;;;;;;;;;4971998;28;20041;-85
2022/03/21 13:35:31;;;;;;;31.33;15.52;;;;;;;;;;4957827;28;20030;-83
2022/03/21 13:38:04;;;;;;;27.30;16.38;;;;;;;;;;4960981;28;20129;-84
2022/03/21 13:40:31;;;;;;;31.02;14.77;;;;;;;;;;4963243;28;20027;-84
2022/03/21 13:43:16;;;;;;;22.85;15.10;;;;;;;;;;4964331;28;20136;-85
2022/03/21 13:45:43;;;;;;;27.63;15.30;;;;;;;;;;4977579;28;20030;-85
2022/03/21 13:48:09;;;;;;;26.75;14.82;;;;;;;;;;4962552;28;20045;-85
2022/03/21 13:50:41;;;;;;;25.23;14.77;;;;;;;;;;4963555;28;20038;-85
2022/03/21 13:53:28;;;;;;;26.05;15.00;;;;;;;;;;4974667;28;20038;-84
2022/03/21 13:55:56;;;;;;;23.67;14.13;;;;;;;;;;4962794;28;20054;-84
2022/03/21 13:58:29;;;;;;;26.35;14.68;;;;;;;;;;4979737;28;20030;-85
2022/03/21 14:00:57;;;;;;;24.88;14.02;;;;;;;;;;4967217;28;20125;-85
2022/03/21 14:03:50;;;;;;;30.50;15.10;;;;;;;;;;4960601;28;20037;-85
2022/03/21 14:06:16;;;;;;;21.60;13.90;;;;;;;;;;4978267;28;20145;-85
2022/03/21 14:08:42;;;;;;;33.03;14.40;;;;;;;;;;4965346;28;20053;-85
2022/03/21 14:11:12;;;;;;;24.25;13.85;;;;;;;;;;4960070;28;20066;-85
2022/03/21 14:13:47;;;;;;;28.77;12.98;;;;;;;;;;4966328;28;20038;-84
2022/03/21 14:16:14;;;;;;;21.90;13.93;;;;;;;;;;4975585;28;20039;-85
2022/03/21 14:18:51;;;;;;;25.13;13.65;;;;;;;;;;4966436;28;20049;-85
2022/03/21 14:21:17;;;;;;;27.45;14.57;;;;;;;;;;4980619;28;20022;-85
2022/03/21 14:23:43;;;;;;;26.15;14.02;;;;;;;;;;4961582;28;20316;-85
2022/03/21 14:28:54;;;;;;;21.10;13.60;;;;;;;;;;4981457;28;20121;-84
2022/03/21 14:31:20;;;;;;;28.30;14.27;;;;;;;;;;4983341;28;20113;-85
2022/03/21 14:33:47;;;;;;;25.33;13.32;;;;;;;;;;4979789;28;20049;-84
2022/03/21 14:36:13;;;;;;;24.95;14.38;;;;;;;;;;4978799;28;20041;-85
2022/03/21 14:38:40;;;;;;;24.55;14.50;;;;;;;;;;4965417;28;20066;-84
2022/03/21 14:41:08;;;;;;;27.67;15.40;;;;;;;;;;4962475;28;20038;-84
2022/03/21 14:43:34;;;;;;;26.80;15.73;;;;;;;;;;4982401;28;20482;-84
2022/03/21 14:46:04;;;;;;;31.90;15.82;;;;;;;;;;4978509;28;20034;-85
2022/03/21 14:48:30;;;;;;;28.20;14.70;;;;;;;;;;4966083;28;20034;-84